sensor_id;sensor_type;location;lat;lon;timestamp;P1;P2;P0
33948;PMS7003;20229;49.856;19.030;2022-11-25T00:00:14;43;34;23
33948;PMS7003;20229;49.856;19.030;2022-11-25T00:05:36;37;30;20
33948;PMS7003;20229;49.856;19.030;2022-11-25T00:10:39;37;30;19
33948;PMS7003;20229;49.856;19.030;2022-11-25T00:16:06;34;26;18
33948;PMS7003;20229;49.856;19.030;2022-11-25T00:21:12;36;28;19
33948;PMS7003;20229;49.856;19.030;2022-11-25T00:26:28;37;29;20
33948;PMS7003;20229;49.856;19.030;2022-11-25T00:31:35;32;27;19
33948;PMS7003;20229;49.856;19.030;2022-11-25T00:36:53;32;26;17
33948;PMS7003;20229;49.856;19.030;2022-11-25T00:41:58;32;27;19
33948;PMS7003;20229;49.856;19.030;2022-11-25T00:47:19;34;27;18
33948;PMS7003;20229;49.856;19.030;2022-11-25T00:52:25;33;26;19
33948;PMS7003;20229;49.856;19.030;2022-11-25T00:57:45;21;19;14
33948;PMS7003;20229;49.856;19.030;2022-11-25T01:02:48;28;25;18
33948;PMS7003;20229;49.856;19.030;2022-11-25T01:08:11;31;26;17
33948;PMS7003;20229;49.856;19.030;2022-11-25T01:13:14;30;22;15
33948;PMS7003;20229;49.856;19.030;2022-11-25T01:18:36;28;24;16
33948;PMS7003;20229;49.856;19.030;2022-11-25T01:23:40;33;27;19
33948;PMS7003;20229;49.856;19.030;2022-11-25T01:29:03;31;27;17
33948;PMS7003;20229;49.856;19.030;2022-11-25T01:34:13;31;27;18
33948;PMS7003;20229;49.856;19.030;2022-11-25T01:39:28;28;25;17
33948;PMS7003;20229;49.856;19.030;2022-11-25T01:44:33;29;24;16
33948;PMS7003;20229;49.856;19.030;2022-11-25T01:55:11;25;24;14
33948;PMS7003;20229;49.856;19.030;2022-11-25T02:00:22;31;27;18
33948;PMS7003;20229;49.856;19.030;2022-11-25T02:10:45;32;26;18
33948;PMS7003;20229;49.856;19.030;2022-11-25T02:15:49;37;29;20
33948;PMS7003;20229;49.856;19.030;2022-11-25T02:21:12;27;23;16
33948;PMS7003;20229;49.856;19.030;2022-11-25T02:26:20;33;25;16
33948;PMS7003;20229;49.856;19.030;2022-11-25T02:31:37;33;25;16
33948;PMS7003;20229;49.856;19.030;2022-11-25T02:36:40;31;26;17
33948;PMS7003;20229;49.856;19.030;2022-11-25T02:42:03;30;25;17
33948;PMS7003;20229;49.856;19.030;2022-11-25T02:47:06;28;23;14
33948;PMS7003;20229;49.856;19.030;2022-11-25T02:52:29;31;24;17
33948;PMS7003;20229;49.856;19.030;2022-11-25T02:57:32;32;27;19
33948;PMS7003;20229;49.856;19.030;2022-11-25T03:02:55;34;29;19
33948;PMS7003;20229;49.856;19.030;2022-11-25T03:07:59;32;26;17
33948;PMS7003;20229;49.856;19.030;2022-11-25T03:13:21;38;30;21
33948;PMS7003;20229;49.856;19.030;2022-11-25T03:18:25;29;24;18
33948;PMS7003;20229;49.856;19.030;2022-11-25T03:23:46;34;29;18
33948;PMS7003;20229;49.856;19.030;2022-11-25T03:28:49;38;29;22
33948;PMS7003;20229;49.856;19.030;2022-11-25T03:34:12;48;36;25
33948;PMS7003;20229;49.856;19.030;2022-11-25T03:39:16;50;41;29
33948;PMS7003;20229;49.856;19.030;2022-11-25T03:44:38;48;39;28
33948;PMS7003;20229;49.856;19.030;2022-11-25T03:49:41;54;44;33
33948;PMS7003;20229;49.856;19.030;2022-11-25T03:55:04;54;45;35
33948;PMS7003;20229;49.856;19.030;2022-11-25T04:00:09;59;49;37
33948;PMS7003;20229;49.856;19.030;2022-11-25T04:05:30;60;46;36
33948;PMS7003;20229;49.856;19.030;2022-11-25T04:10:33;59;50;38
33948;PMS7003;20229;49.856;19.030;2022-11-25T04:15:56;59;47;36
33948;PMS7003;20229;49.856;19.030;2022-11-25T04:21:00;59;49;37
33948;PMS7003;20229;49.856;19.030;2022-11-25T04:26:22;46;39;31
33948;PMS7003;20229;49.856;19.030;2022-11-25T04:31:25;57;45;33
33948;PMS7003;20229;49.856;19.030;2022-11-25T04:36:47;50;40;28
33948;PMS7003;20229;49.856;19.030;2022-11-25T04:41:51;55;44;33
33948;PMS7003;20229;49.856;19.030;2022-11-25T04:47:14;56;42;33
33948;PMS7003;20229;49.856;19.030;2022-11-25T04:52:17;49;41;29
33948;PMS7003;20229;49.856;19.030;2022-11-25T04:57:39;55;43;32
33948;PMS7003;20229;49.856;19.030;2022-11-25T05:02:43;52;41;29
33948;PMS7003;20229;49.856;19.030;2022-11-25T05:08:05;55;43;32
33948;PMS7003;20229;49.856;19.030;2022-11-25T05:13:09;54;42;31
33948;PMS7003;20229;49.856;19.030;2022-11-25T05:18:31;60;50;39
33948;PMS7003;20229;49.856;19.030;2022-11-25T05:23:35;53;41;31
33948;PMS7003;20229;49.856;19.030;2022-11-25T05:28:57;55;44;32
33948;PMS7003;20229;49.856;19.030;2022-11-25T05:34:01;54;41;32
33948;PMS7003;20229;49.856;19.030;2022-11-25T05:39:23;56;44;33
33948;PMS7003;20229;49.856;19.030;2022-11-25T05:44:27;56;45;34
33948;PMS7003;20229;49.856;19.030;2022-11-25T05:49:49;64;48;38
33948;PMS7003;20229;49.856;19.030;2022-11-25T05:54:53;58;47;38
33948;PMS7003;20229;49.856;19.030;2022-11-25T06:00:16;60;46;37
33948;PMS7003;20229;49.856;19.030;2022-11-25T06:05:20;64;47;38
33948;PMS7003;20229;49.856;19.030;2022-11-25T06:10:41;56;40;30
33948;PMS7003;20229;49.856;19.030;2022-11-25T06:15:45;62;46;35
33948;PMS7003;20229;49.856;19.030;2022-11-25T06:21:08;61;44;32
33948;PMS7003;20229;49.856;19.030;2022-11-25T06:26:16;59;42;32
33948;PMS7003;20229;49.856;19.030;2022-11-25T06:31:33;63;49;40
33948;PMS7003;20229;49.856;19.030;2022-11-25T06:36:36;58;43;38
33948;PMS7003;20229;49.856;19.030;2022-11-25T06:41:59;66;54;40
33948;PMS7003;20229;49.856;19.030;2022-11-25T06:47:03;61;46;37
33948;PMS7003;20229;49.856;19.030;2022-11-25T06:52:25;64;50;40
33948;PMS7003;20229;49.856;19.030;2022-11-25T06:57:28;65;52;42
33948;PMS7003;20229;49.856;19.030;2022-11-25T07:02:51;67;52;41
33948;PMS7003;20229;49.856;19.030;2022-11-25T07:07:54;52;37;29
33948;PMS7003;20229;49.856;19.030;2022-11-25T07:13:18;66;52;40
33948;PMS7003;20229;49.856;19.030;2022-11-25T07:18:22;62;47;36
33948;PMS7003;20229;49.856;19.030;2022-11-25T07:23:44;56;40;30
33948;PMS7003;20229;49.856;19.030;2022-11-25T07:28:49;53;39;28
33948;PMS7003;20229;49.856;19.030;2022-11-25T07:34:10;73;59;48
33948;PMS7003;20229;49.856;19.030;2022-11-25T07:39:19;73;59;49
33948;PMS7003;20229;49.856;19.030;2022-11-25T07:44:36;67;54;46
33948;PMS7003;20229;49.856;19.030;2022-11-25T07:49:39;86;75;66
33948;PMS7003;20229;49.856;19.030;2022-11-25T07:55:02;102;91;77
33948;PMS7003;20229;49.856;19.030;2022-11-25T08:00:06;75;59;49
33948;PMS7003;20229;49.856;19.030;2022-11-25T08:05:27;97;86;77
33948;PMS7003;20229;49.856;19.030;2022-11-25T08:10:31;75;60;48
33948;PMS7003;20229;49.856;19.030;2022-11-25T08:15:53;107;97;88
33948;PMS7003;20229;49.856;19.030;2022-11-25T08:20:58;76;62;51
33948;PMS7003;20229;49.856;19.030;2022-11-25T08:26:21;48;32;23
33948;PMS7003;20229;49.856;19.030;2022-11-25T08:31:28;53;34;23
33948;PMS7003;20229;49.856;19.030;2022-11-25T08:36:46;45;27;13
33948;PMS7003;20229;49.856;19.030;2022-11-25T08:41:50;51;32;20
33948;PMS7003;20229;49.856;19.030;2022-11-25T08:47:12;56;39;27
33948;PMS7003;20229;49.856;19.030;2022-11-25T08:52:16;56;39;29
33948;PMS7003;20229;49.856;19.030;2022-11-25T08:57:38;50;35;25
33948;PMS7003;20229;49.856;19.030;2022-11-25T09:02:42;54;40;28
33948;PMS7003;20229;49.856;19.030;2022-11-25T09:08:05;54;39;28
33948;PMS7003;20229;49.856;19.030;2022-11-25T09:13:09;55;39;29
33948;PMS7003;20229;49.856;19.030;2022-11-25T09:18:30;58;46;35
33948;PMS7003;20229;49.856;19.030;2022-11-25T09:23:34;57;46;36
33948;PMS7003;20229;49.856;19.030;2022-11-25T09:28:56;45;37;30
33948;PMS7003;20229;49.856;19.030;2022-11-25T09:34:00;45;36;29
33948;PMS7003;20229;49.856;19.030;2022-11-25T09:39:22;41;33;25
33948;PMS7003;20229;49.856;19.030;2022-11-25T09:55:19;40;35;27
33948;PMS7003;20229;49.856;19.030;2022-11-25T10:00:44;27;25;18
33948;PMS7003;20229;49.856;19.030;2022-11-25T10:11:02;39;33;26
33948;PMS7003;20229;49.856;19.030;2022-11-25T10:16:19;38;32;25
33948;PMS7003;20229;49.856;19.030;2022-11-25T10:21:28;45;38;30
33948;PMS7003;20229;49.856;19.030;2022-11-25T10:26:34;43;34;26
33948;PMS7003;20229;49.856;19.030;2022-11-25T10:31:44;40;33;25
33948;PMS7003;20229;49.856;19.030;2022-11-25T10:36:47;39;32;25
33948;PMS7003;20229;49.856;19.030;2022-11-25T10:41:59;39;32;25
33948;PMS7003;20229;49.856;19.030;2022-11-25T10:47:14;43;35;26
33948;PMS7003;20229;49.856;19.030;2022-11-25T10:52:28;35;30;23
33948;PMS7003;20229;49.856;19.030;2022-11-25T10:57:35;42;33;25
33948;PMS7003;20229;49.856;19.030;2022-11-25T11:02:50;42;36;30
33948;PMS7003;20229;49.856;19.030;2022-11-25T11:18:29;51;43;37
33948;PMS7003;20229;49.856;19.030;2022-11-25T11:23:47;57;46;39
33948;PMS7003;20229;49.856;19.030;2022-11-25T11:44:43;49;39;31
33948;PMS7003;20229;49.856;19.030;2022-11-25T11:50:00;44;37;27
33948;PMS7003;20229;49.856;19.030;2022-11-25T11:55:19;36;30;21
33948;PMS7003;20229;49.856;19.030;2022-11-25T12:00:32;46;39;30
33948;PMS7003;20229;49.856;19.030;2022-11-25T12:05:58;53;43;33
33948;PMS7003;20229;49.856;19.030;2022-11-25T12:11:14;53;45;35
33948;PMS7003;20229;49.856;19.030;2022-11-25T12:16:24;51;42;32
33948;PMS7003;20229;49.856;19.030;2022-11-25T12:26:53;49;40;30
33948;PMS7003;20229;49.856;19.030;2022-11-25T12:37:38;45;36;27
33948;PMS7003;20229;49.856;19.030;2022-11-25T12:42:37;36;28;24
33948;PMS7003;20229;49.856;19.030;2022-11-25T12:47:43;54;42;33
33948;PMS7003;20229;49.856;19.030;2022-11-25T12:52:52;41;34;25
33948;PMS7003;20229;49.856;19.030;2022-11-25T13:19:10;48;36;26
33948;PMS7003;20229;49.856;19.030;2022-11-25T13:34:47;50;39;28
33948;PMS7003;20229;49.856;19.030;2022-11-25T13:39:51;65;50;40
33948;PMS7003;20229;49.856;19.030;2022-11-25T13:45:19;57;44;33
33948;PMS7003;20229;49.856;19.030;2022-11-25T13:50:21;51;41;30
33948;PMS7003;20229;49.856;19.030;2022-11-25T13:55:31;52;41;29
33948;PMS7003;20229;49.856;19.030;2022-11-25T14:00:46;47;38;27
33948;PMS7003;20229;49.856;19.030;2022-11-25T14:26:56;60;52;44
33948;PMS7003;20229;49.856;19.030;2022-11-25T14:32:02;57;46;36
33948;PMS7003;20229;49.856;19.030;2022-11-25T14:37:16;59;50;42
33948;PMS7003;20229;49.856;19.030;2022-11-25T14:42:30;51;42;33
33948;PMS7003;20229;49.856;19.030;2022-11-25T14:47:37;56;44;34
33948;PMS7003;20229;49.856;19.030;2022-11-25T14:52:51;52;40;29
33948;PMS7003;20229;49.856;19.030;2022-11-25T14:57:55;45;36;26
33948;PMS7003;20229;49.856;19.030;2022-11-25T15:03:18;43;35;25
33948;PMS7003;20229;49.856;19.030;2022-11-25T15:08:23;49;40;28
33948;PMS7003;20229;49.856;19.030;2022-11-25T15:18:58;42;33;23
33948;PMS7003;20229;49.856;19.030;2022-11-25T15:29:24;48;37;25
33948;PMS7003;20229;49.856;19.030;2022-11-25T15:34:34;52;39;22
33948;PMS7003;20229;49.856;19.030;2022-11-25T15:39:39;58;43;29
33948;PMS7003;20229;49.856;19.030;2022-11-25T15:45:02;50;38;27
33948;PMS7003;20229;49.856;19.030;2022-11-25T15:55:29;51;39;27
33948;PMS7003;20229;49.856;19.030;2022-11-25T16:00:36;48;36;26
33948;PMS7003;20229;49.856;19.030;2022-11-25T16:05:55;44;35;25
33948;PMS7003;20229;49.856;19.030;2022-11-25T16:11:10;55;41;30
33948;PMS7003;20229;49.856;19.030;2022-11-25T16:16:18;43;35;24
33948;PMS7003;20229;49.856;19.030;2022-11-25T16:31:59;48;36;25
33948;PMS7003;20229;49.856;19.030;2022-11-25T16:37:09;51;38;27
33948;PMS7003;20229;49.856;19.030;2022-11-25T16:42:15;47;37;26
33948;PMS7003;20229;49.856;19.030;2022-11-25T16:47:35;48;39;26
33948;PMS7003;20229;49.856;19.030;2022-11-25T16:52:39;47;38;26
33948;PMS7003;20229;49.856;19.030;2022-11-25T16:58:01;46;37;25
33948;PMS7003;20229;49.856;19.030;2022-11-25T17:03:15;74;58;37
33948;PMS7003;20229;49.856;19.030;2022-11-25T17:08:27;70;52;34
33948;PMS7003;20229;49.856;19.030;2022-11-25T17:13:30;63;47;30
33948;PMS7003;20229;49.856;19.030;2022-11-25T17:18:54;75;56;36
33948;PMS7003;20229;49.856;19.030;2022-11-25T17:24:00;68;52;34
33948;PMS7003;20229;49.856;19.030;2022-11-25T17:29:20;65;47;31
33948;PMS7003;20229;49.856;19.030;2022-11-25T17:34:31;56;41;26
33948;PMS7003;20229;49.856;19.030;2022-11-25T17:39:45;48;38;25
33948;PMS7003;20229;49.856;19.030;2022-11-25T17:44:49;48;36;23
33948;PMS7003;20229;49.856;19.030;2022-11-25T17:50:13;45;34;21
33948;PMS7003;20229;49.856;19.030;2022-11-25T17:55:19;52;41;28
33948;PMS7003;20229;49.856;19.030;2022-11-25T18:00:37;44;35;26
33948;PMS7003;20229;49.856;19.030;2022-11-25T18:05:43;51;39;28
33948;PMS7003;20229;49.856;19.030;2022-11-25T18:11:03;63;48;33
33948;PMS7003;20229;49.856;19.030;2022-11-25T18:16:09;50;41;27
33948;PMS7003;20229;49.856;19.030;2022-11-25T18:21:28;56;45;33
33948;PMS7003;20229;49.856;19.030;2022-11-25T18:26:32;59;45;32
33948;PMS7003;20229;49.856;19.030;2022-11-25T18:31:54;58;43;30
33948;PMS7003;20229;49.856;19.030;2022-11-25T18:37:00;60;47;34
33948;PMS7003;20229;49.856;19.030;2022-11-25T18:42:23;69;55;36
33948;PMS7003;20229;49.856;19.030;2022-11-25T18:47:28;78;61;42
33948;PMS7003;20229;49.856;19.030;2022-11-25T18:52:46;65;49;36
33948;PMS7003;20229;49.856;19.030;2022-11-25T18:57:51;66;51;37
33948;PMS7003;20229;49.856;19.030;2022-11-25T19:03:15;62;48;36
33948;PMS7003;20229;49.856;19.030;2022-11-25T19:08:23;60;47;33
33948;PMS7003;20229;49.856;19.030;2022-11-25T19:13:38;53;43;32
33948;PMS7003;20229;49.856;19.030;2022-11-25T19:18:43;66;49;37
33948;PMS7003;20229;49.856;19.030;2022-11-25T19:24:05;63;50;40
33948;PMS7003;20229;49.856;19.030;2022-11-25T19:34:32;64;53;39
33948;PMS7003;20229;49.856;19.030;2022-11-25T19:39:39;68;58;47
33948;PMS7003;20229;49.856;19.030;2022-11-25T19:44:57;67;55;43
33948;PMS7003;20229;49.856;19.030;2022-11-25T19:50:00;66;57;46
33948;PMS7003;20229;49.856;19.030;2022-11-25T19:55:24;65;54;43
33948;PMS7003;20229;49.856;19.030;2022-11-25T20:00:34;68;60;49
33948;PMS7003;20229;49.856;19.030;2022-11-25T20:05:49;70;61;50
33948;PMS7003;20229;49.856;19.030;2022-11-25T20:10:55;70;63;52
33948;PMS7003;20229;49.856;19.030;2022-11-25T20:16:18;66;56;45
33948;PMS7003;20229;49.856;19.030;2022-11-25T20:21:30;68;57;46
33948;PMS7003;20229;49.856;19.030;2022-11-25T20:26:42;71;60;49
33948;PMS7003;20229;49.856;19.030;2022-11-25T20:31:52;67;57;45
33948;PMS7003;20229;49.856;19.030;2022-11-25T20:37:07;69;58;49
33948;PMS7003;20229;49.856;19.030;2022-11-25T20:42:17;73;61;49
33948;PMS7003;20229;49.856;19.030;2022-11-25T20:47:32;60;49;36
33948;PMS7003;20229;49.856;19.030;2022-11-25T20:52:35;62;50;36
33948;PMS7003;20229;49.856;19.030;2022-11-25T20:57:58;66;52;43
33948;PMS7003;20229;49.856;19.030;2022-11-25T21:03:02;59;48;35
33948;PMS7003;20229;49.856;19.030;2022-11-25T21:08:25;60;46;33
33948;PMS7003;20229;49.856;19.030;2022-11-25T21:13:31;57;45;34
33948;PMS7003;20229;49.856;19.030;2022-11-25T21:18:50;58;44;33
33948;PMS7003;20229;49.856;19.030;2022-11-25T21:23:53;56;45;33
33948;PMS7003;20229;49.856;19.030;2022-11-25T21:29:16;65;48;34
33948;PMS7003;20229;49.856;19.030;2022-11-25T21:34:20;59;46;33
33948;PMS7003;20229;49.856;19.030;2022-11-25T21:39:42;52;41;29
33948;PMS7003;20229;49.856;19.030;2022-11-25T21:44:46;58;43;31
33948;PMS7003;20229;49.856;19.030;2022-11-25T21:50:12;52;42;30
33948;PMS7003;20229;49.856;19.030;2022-11-25T21:55:20;49;39;27
33948;PMS7003;20229;49.856;19.030;2022-11-25T22:00:34;45;36;24
33948;PMS7003;20229;49.856;19.030;2022-11-25T22:05:37;58;45;32
33948;PMS7003;20229;49.856;19.030;2022-11-25T22:11:00;57;46;34
33948;PMS7003;20229;49.856;19.030;2022-11-25T22:16:03;62;49;39
33948;PMS7003;20229;49.856;19.030;2022-11-25T22:21:26;55;45;33
33948;PMS7003;20229;49.856;19.030;2022-11-25T22:26:30;67;57;45
33948;PMS7003;20229;49.856;19.030;2022-11-25T22:31:52;57;44;33
33948;PMS7003;20229;49.856;19.030;2022-11-25T22:36:55;54;41;28
33948;PMS7003;20229;49.856;19.030;2022-11-25T22:42:28;51;41;28
33948;PMS7003;20229;49.856;19.030;2022-11-25T22:52:44;54;42;31
33948;PMS7003;20229;49.856;19.030;2022-11-25T22:57:48;46;34;24
33948;PMS7003;20229;49.856;19.030;2022-11-25T23:08:23;55;39;29
33948;PMS7003;20229;49.856;19.030;2022-11-25T23:13:36;49;34;24
33948;PMS7003;20229;49.856;19.030;2022-11-25T23:18:40;50;34;24
33948;PMS7003;20229;49.856;19.030;2022-11-25T23:24:04;54;35;26
33948;PMS7003;20229;49.856;19.030;2022-11-25T23:29:12;50;35;26
33948;PMS7003;20229;49.856;19.030;2022-11-25T23:34:27;45;31;23
33948;PMS7003;20229;49.856;19.030;2022-11-25T23:39:31;54;38;27
33948;PMS7003;20229;49.856;19.030;2022-11-25T23:44:53;54;36;26
33948;PMS7003;20229;49.856;19.030;2022-11-25T23:49:57;53;36;25
33948;PMS7003;20229;49.856;19.030;2022-11-25T23:55:21;49;32;23
